createdAt,value
2022-08-02T00:00:37.203Z,17.20
2022-08-02T00:03:03.986Z,17.01
2022-08-02T00:05:30.742Z,16.90
2022-08-02T00:07:57.481Z,16.92
2022-08-02T00:10:24.453Z,17.05
2022-08-02T00:12:51.274Z,17.20
2022-08-02T00:15:20.031Z,17.35
2022-08-02T00:17:47.343Z,17.33
2022-08-02T00:20:16.514Z,17.16
2022-08-02T00:22:43.450Z,17.11
2022-08-02T00:25:10.743Z,17.08
2022-08-02T00:27:37.771Z,17.11
2022-08-02T00:30:05.461Z,17.29
2022-08-02T00:32:32.214Z,17.46
2022-08-02T00:34:58.926Z,17.54
2022-08-02T00:37:25.724Z,17.56
2022-08-02T00:39:52.463Z,17.59
2022-08-02T00:42:20.548Z,17.53
2022-08-02T00:44:47.282Z,17.45
2022-08-02T00:47:19.521Z,17.42
2022-08-02T00:49:47.310Z,17.34
2022-08-02T00:52:14.897Z,17.31
2022-08-02T00:54:42.130Z,17.33
2022-08-02T00:57:08.883Z,17.42
2022-08-02T00:59:35.702Z,17.56
2022-08-02T01:02:02.605Z,17.47
2022-08-02T01:04:31.073Z,17.34
2022-08-02T01:07:01.137Z,17.26
2022-08-02T01:09:28.166Z,17.19
2022-08-02T01:11:55.343Z,17.14
2022-08-02T01:14:25.330Z,17.09
2022-08-02T01:17:10.960Z,17.09
2022-08-02T01:20:24.045Z,17.14
2022-08-02T01:23:15.053Z,17.28
2022-08-02T01:26:02.963Z,17.48
2022-08-02T01:28:38.391Z,17.57
2022-08-02T01:31:16.998Z,17.44
2022-08-02T01:33:52.819Z,17.37
2022-08-02T01:36:23.497Z,17.30
2022-08-02T01:38:54.703Z,17.21
2022-08-02T01:41:28.249Z,17.18
2022-08-02T01:44:00.053Z,17.20
2022-08-02T01:46:30.346Z,17.32
2022-08-02T01:49:03.065Z,17.34
2022-08-02T01:51:51.329Z,17.25
2022-08-02T01:54:24.937Z,17.28
2022-08-02T01:56:54.307Z,17.20
2022-08-02T01:59:23.919Z,17.18
2022-08-02T02:01:55.289Z,17.25
2022-08-02T02:04:23.647Z,17.33
2022-08-02T02:06:53.256Z,17.30
2022-08-02T02:09:22.270Z,17.25
2022-08-02T02:12:10.091Z,17.25
2022-08-02T02:14:39.091Z,17.20
2022-08-02T02:17:08.359Z,17.10
2022-08-02T02:19:58.194Z,16.99
2022-08-02T02:22:25.016Z,16.99
2022-08-02T02:24:53.727Z,17.11
2022-08-02T02:27:24.781Z,17.26
2022-08-02T02:29:54.790Z,17.29
2022-08-02T02:32:27.466Z,17.37
2022-08-02T02:34:56.771Z,17.44
2022-08-02T02:37:27.172Z,17.44
2022-08-02T02:39:56.992Z,17.43
2022-08-02T02:42:31.458Z,17.42
2022-08-02T02:45:00.567Z,17.45
2022-08-02T02:47:40.751Z,17.40
2022-08-02T02:50:10.794Z,17.20
2022-08-02T02:52:40.475Z,16.93
2022-08-02T02:55:11.155Z,16.89
2022-08-02T02:57:40.463Z,16.86
2022-08-02T03:00:12.195Z,16.81
2022-08-02T03:02:41.705Z,16.78
2022-08-02T03:05:10.953Z,16.75
2022-08-02T03:07:39.134Z,16.69
2022-08-02T03:10:08.240Z,16.71
2022-08-02T03:12:36.622Z,16.68
2022-08-02T03:15:08.229Z,16.75
2022-08-02T03:17:43.800Z,16.71
2022-08-02T03:20:19.615Z,16.71
2022-08-02T03:22:48.261Z,16.82
2022-08-02T03:25:17.693Z,16.78
2022-08-02T03:27:44.801Z,16.84
2022-08-02T03:30:13.388Z,16.80
2022-08-02T03:32:47.423Z,16.83
2022-08-02T03:35:23.367Z,16.92
2022-08-02T03:37:56.667Z,17.04
2022-08-02T03:40:25.455Z,17.07
2022-08-02T03:42:54.582Z,16.94
2022-08-02T03:45:22.860Z,16.79
2022-08-02T03:47:51.072Z,16.70
2022-08-02T03:50:22.921Z,16.72
2022-08-02T03:52:51.156Z,16.74
2022-08-02T03:55:18.139Z,16.66
2022-08-02T03:57:44.877Z,16.63
2022-08-02T04:00:19.358Z,16.61
2022-08-02T04:02:46.948Z,16.61
2022-08-02T04:05:14.966Z,16.68
2022-08-02T04:08:36.197Z,16.67
2022-08-02T04:10:30.433Z,16.67
2022-08-02T04:12:58.437Z,16.63
2022-08-02T04:15:25.556Z,16.60
2022-08-02T04:18:02.821Z,16.61
2022-08-02T04:20:36.097Z,16.72
2022-08-02T04:23:09.950Z,16.80
2022-08-02T04:25:40.642Z,16.90
2022-08-02T04:28:17.158Z,16.92
2022-08-02T04:30:48.192Z,16.95
2022-08-02T04:33:15.888Z,16.92
2022-08-02T04:35:44.490Z,16.92
2022-08-02T04:38:15.064Z,16.85
2022-08-02T04:40:52.222Z,16.97
2022-08-02T04:43:19.906Z,16.87
2022-08-02T04:45:51.621Z,16.84
2022-08-02T04:48:19.027Z,16.74
2022-08-02T04:50:46.143Z,16.68
2022-08-02T04:53:12.925Z,16.73
2022-08-02T04:55:40.035Z,16.84
2022-08-02T04:58:23.873Z,16.80
2022-08-02T05:00:53.598Z,16.80
2022-08-02T05:03:20.417Z,16.81
2022-08-02T05:05:47.138Z,16.89
2022-08-02T05:08:13.832Z,17.02
2022-08-02T05:10:40.511Z,17.02
2022-08-02T05:13:07.440Z,17.16
2022-08-02T05:15:34.392Z,17.29
2022-08-02T05:18:01.191Z,17.39
2022-08-02T05:20:27.953Z,17.32
2022-08-02T05:22:54.814Z,17.45
2022-08-02T05:25:21.680Z,17.69
2022-08-02T05:27:48.579Z,17.88
2022-08-02T05:30:15.396Z,18.05
2022-08-02T05:32:48.797Z,18.22
2022-08-02T05:35:22.126Z,18.17
2022-08-02T05:37:51.225Z,18.14
2022-08-02T05:40:24.703Z,18.48
2022-08-02T05:42:56.155Z,18.69
2022-08-02T05:45:23.657Z,18.75
2022-08-02T05:47:50.507Z,18.91
2022-08-02T05:50:17.980Z,18.80
2022-08-02T05:52:51.668Z,18.96
2022-08-02T05:55:32.580Z,18.91
2022-08-02T05:58:27.307Z,18.67
2022-08-02T06:00:57.081Z,18.99
2022-08-02T06:03:40.806Z,19.00
2022-08-02T06:06:17.824Z,18.99
2022-08-02T06:08:50.019Z,18.93
2022-08-02T06:11:25.304Z,18.89
2022-08-02T06:13:54.307Z,18.92
2022-08-02T06:16:31.656Z,18.98
2022-08-02T06:19:00.964Z,19.22
2022-08-02T06:22:34.890Z,19.72
2022-08-02T06:24:19.789Z,20.10
2022-08-02T06:26:52.526Z,20.19
2022-08-02T06:29:23.214Z,20.14
2022-08-02T06:31:53.564Z,20.05
2022-08-02T06:34:20.439Z,20.22
2022-08-02T06:37:09.013Z,19.83
2022-08-02T06:39:52.127Z,19.84
2022-08-02T06:42:29.284Z,20.09
2022-08-02T06:44:57.981Z,20.69
2022-08-02T06:47:26.674Z,20.47
2022-08-02T06:49:55.204Z,20.45
2022-08-02T06:52:29.321Z,20.33
2022-08-02T06:55:00.279Z,20.49
2022-08-02T06:57:29.052Z,20.98
2022-08-02T06:59:56.521Z,21.24
2022-08-02T07:02:24.197Z,20.50
2022-08-02T07:04:51.524Z,20.84
2022-08-02T07:07:18.774Z,21.03
2022-08-02T07:10:00.423Z,21.32
2022-08-02T07:12:33.531Z,21.84
2022-08-02T07:15:05.301Z,21.35
2022-08-02T07:17:32.844Z,21.44
2022-08-02T07:20:00.816Z,21.41
2022-08-02T07:22:28.935Z,21.60
2022-08-02T07:24:58.738Z,21.69
2022-08-02T07:27:26.204Z,21.75
2022-08-02T07:29:54.630Z,22.03
2022-08-02T07:32:25.723Z,21.19
2022-08-02T07:34:55.098Z,20.58
2022-08-02T07:37:53.690Z,20.98
2022-08-02T07:40:15.109Z,21.78
2022-08-02T07:42:48.539Z,22.43
2022-08-02T07:45:15.389Z,22.98
2022-08-02T07:47:47.395Z,22.86
2022-08-02T07:50:17.070Z,22.64
2022-08-02T07:52:45.354Z,23.04
2022-08-02T07:55:14.905Z,23.32
2022-08-02T07:57:46.117Z,22.83
2022-08-02T08:00:16.372Z,23.28
2022-08-02T08:02:44.708Z,23.54
2022-08-02T08:05:12.725Z,23.12
2022-08-02T08:07:40.361Z,23.07
2022-08-02T08:10:08.775Z,23.56
2022-08-02T08:12:36.179Z,23.63
2022-08-02T08:15:04.627Z,23.19
2022-08-02T08:17:31.592Z,23.33
2022-08-02T08:19:58.407Z,23.31
2022-08-02T08:22:25.230Z,22.97
2022-08-02T08:24:51.956Z,22.60
2022-08-02T08:27:22.456Z,22.47
2022-08-02T08:29:50.318Z,22.60
2022-08-02T08:32:18.249Z,22.65
2022-08-02T08:34:51.302Z,22.51
2022-08-02T08:37:18.806Z,23.06
2022-08-02T08:39:56.689Z,23.50
2022-08-02T08:42:26.252Z,23.79
2022-08-02T08:44:54.945Z,23.92
2022-08-02T08:47:24.115Z,24.34
2022-08-02T08:49:56.823Z,23.93
2022-08-02T08:52:27.321Z,23.76
2022-08-02T08:54:56.747Z,23.69
2022-08-02T08:57:29.652Z,24.19
2022-08-02T08:59:56.802Z,24.46
2022-08-02T09:02:28.059Z,24.13
2022-08-02T09:04:55.863Z,24.59
2022-08-02T09:07:23.817Z,23.72
2022-08-02T09:09:50.553Z,23.64
2022-08-02T09:12:22.605Z,24.02
2022-08-02T09:14:50.173Z,24.15
2022-08-02T09:17:18.636Z,22.55
2022-08-02T09:19:48.178Z,22.93
2022-08-02T09:22:15.941Z,24.16
2022-08-02T09:24:49.414Z,24.46
2022-08-02T09:27:22.856Z,24.93
2022-08-02T09:30:13.578Z,24.25
2022-08-02T09:32:49.819Z,23.95
2022-08-02T09:36:06.161Z,23.12
2022-08-02T09:38:37.037Z,23.27
2022-08-02T09:41:07.197Z,23.35
2022-08-02T09:43:57.923Z,23.02
2022-08-02T09:46:33.533Z,22.91
2022-08-02T09:49:03.995Z,22.98
2022-08-02T09:51:49.655Z,23.65
2022-08-02T09:54:20.585Z,24.60
2022-08-02T09:56:57.662Z,24.62
2022-08-02T09:59:27.056Z,24.51
2022-08-02T10:02:01.495Z,24.15
2022-08-02T10:04:33.855Z,23.97
2022-08-02T10:07:04.697Z,23.87
2022-08-02T10:09:32.717Z,23.84
2022-08-02T10:12:01.673Z,23.56
2022-08-02T10:14:30.740Z,23.75
2022-08-02T10:16:58.835Z,23.38
2022-08-02T10:20:01.706Z,23.28
2022-08-02T10:22:17.149Z,23.38
2022-08-02T10:24:49.027Z,23.33
2022-08-02T10:27:21.275Z,24.39
2022-08-02T10:29:53.928Z,24.97
2022-08-02T10:32:36.557Z,24.52
2022-08-02T10:35:19.060Z,23.94
2022-08-02T10:37:58.150Z,24.36
2022-08-02T10:40:28.471Z,24.49
2022-08-02T10:43:01.494Z,23.94
2022-08-02T10:45:29.628Z,24.30
2022-08-02T10:48:07.629Z,24.43
2022-08-02T10:50:46.670Z,24.72
2022-08-02T10:53:31.119Z,25.38
2022-08-02T10:56:05.243Z,25.92
2022-08-02T10:58:34.456Z,25.77
2022-08-02T11:01:38.525Z,24.68
2022-08-02T11:04:10.533Z,24.07
2022-08-02T11:07:10.958Z,24.11
2022-08-02T11:09:38.721Z,23.62
2022-08-02T11:12:14.776Z,23.68
2022-08-02T11:14:59.551Z,24.00
2022-08-02T11:17:28.951Z,24.58
2022-08-02T11:20:11.161Z,24.78
2022-08-02T11:22:40.523Z,24.79
2022-08-02T11:25:22.681Z,24.90
2022-08-02T11:28:00.263Z,25.22
2022-08-02T11:30:27.814Z,25.47
2022-08-02T11:33:00.595Z,25.06
2022-08-02T11:35:40.210Z,24.99
2022-08-02T11:38:21.448Z,25.17
2022-08-02T11:40:49.847Z,25.24
2022-08-02T11:43:27.415Z,25.49
2022-08-02T11:45:56.292Z,25.51
2022-08-02T11:48:40.807Z,24.98
2022-08-02T11:51:13.539Z,25.13
2022-08-02T11:53:58.540Z,25.27
2022-08-02T11:56:34.537Z,25.22
2022-08-02T11:59:09.732Z,25.04
2022-08-02T12:01:46.190Z,24.91
2022-08-02T12:04:22.948Z,25.06
2022-08-02T12:06:56.743Z,25.06
2022-08-02T12:09:24.011Z,24.99
2022-08-02T12:11:51.349Z,24.93
2022-08-02T12:14:19.651Z,25.20
2022-08-02T12:17:06.982Z,25.47
2022-08-02T12:19:35.895Z,25.41
2022-08-02T12:22:27.189Z,25.00
2022-08-02T12:24:57.829Z,24.87
2022-08-02T12:27:43.555Z,25.22
2022-08-02T12:30:27.387Z,25.09
2022-08-02T12:33:13.124Z,25.09
2022-08-02T12:35:40.172Z,25.38
2022-08-02T12:38:12.189Z,25.47
2022-08-02T12:40:39.207Z,25.54
2022-08-02T12:43:16.253Z,25.35
2022-08-02T12:45:55.342Z,25.14
2022-08-02T12:48:38.395Z,25.10
2022-08-02T12:51:55.879Z,25.23
2022-08-02T12:54:39.959Z,25.77
2022-08-02T12:57:15.180Z,25.90
2022-08-02T12:59:48.961Z,26.12
2022-08-02T13:02:17.507Z,25.89
2022-08-02T13:04:50.119Z,25.64
2022-08-02T13:07:19.401Z,25.46
2022-08-02T13:09:48.258Z,25.68
2022-08-02T13:12:18.741Z,25.69
2022-08-02T13:14:45.639Z,25.42
2022-08-02T13:17:12.876Z,25.30
2022-08-02T13:19:40.968Z,25.29
2022-08-02T13:22:08.662Z,25.62
2022-08-02T13:24:55.202Z,25.84
2022-08-02T13:27:25.250Z,26.03
2022-08-02T13:29:54.618Z,26.21
2022-08-02T13:32:23.294Z,26.36
2022-08-02T13:34:50.718Z,26.06
2022-08-02T13:37:18.132Z,25.86
2022-08-02T13:40:05.590Z,25.99
2022-08-02T13:42:33.230Z,25.93
2022-08-02T13:45:00.131Z,25.74
2022-08-02T13:47:36.168Z,25.77
2022-08-02T13:50:04.447Z,25.84
2022-08-02T13:52:34.312Z,25.82
2022-08-02T13:55:01.196Z,25.95
2022-08-02T13:57:29.665Z,26.21
2022-08-02T13:59:59.195Z,26.66
2022-08-02T14:02:28.566Z,26.72
2022-08-02T14:04:56.580Z,26.82
2022-08-02T14:07:23.659Z,26.95
2022-08-02T14:09:50.637Z,26.90
2022-08-02T14:12:18.067Z,26.79
2022-08-02T14:14:44.888Z,26.83
2022-08-02T14:17:11.817Z,26.90
2022-08-02T14:19:40.027Z,26.98
2022-08-02T14:22:10.705Z,26.91
2022-08-02T14:24:39.455Z,26.96
2022-08-02T14:27:06.661Z,26.88
2022-08-02T14:29:34.403Z,26.76
2022-08-02T14:32:02.043Z,26.38
2022-08-02T14:34:29.138Z,26.49
2022-08-02T14:36:57.095Z,26.28
2022-08-02T14:39:23.924Z,26.60
2022-08-02T14:41:59.493Z,26.57
2022-08-02T14:44:28.292Z,26.61
2022-08-02T14:46:56.243Z,26.35
2022-08-02T14:49:25.317Z,26.51
2022-08-02T14:51:57.623Z,26.84
2022-08-02T14:54:30.945Z,27.09
2022-08-02T14:57:04.347Z,27.40
2022-08-02T14:59:31.348Z,27.81
2022-08-02T15:01:59.723Z,27.58
2022-08-02T15:04:27.096Z,27.51
2022-08-02T15:06:55.007Z,27.62
2022-08-02T15:09:22.554Z,27.94
2022-08-02T15:11:49.868Z,27.79
2022-08-02T15:14:26.392Z,27.64
2022-08-02T15:16:58.498Z,27.58
2022-08-02T15:19:58.999Z,27.12
2022-08-02T15:22:19.196Z,27.43
2022-08-02T15:24:46.529Z,27.63
2022-08-02T15:27:14.953Z,27.53
2022-08-02T15:29:44.238Z,27.50
2022-08-02T15:32:13.125Z,27.38
2022-08-02T15:34:40.692Z,27.24
2022-08-02T15:37:07.915Z,27.07
2022-08-02T15:39:34.833Z,26.93
2022-08-02T15:42:02.206Z,26.85
2022-08-02T15:44:29.312Z,26.96
2022-08-02T15:46:56.251Z,26.67
2022-08-02T15:49:25.311Z,26.43
2022-08-02T15:51:53.741Z,26.66
2022-08-02T15:54:21.178Z,26.52
2022-08-02T15:56:48.248Z,26.41
2022-08-02T15:59:15.812Z,26.63
2022-08-02T16:01:47.191Z,26.58
2022-08-02T16:04:16.553Z,26.63
2022-08-02T16:06:44.273Z,26.87
2022-08-02T16:09:12.089Z,26.98
2022-08-02T16:11:39.224Z,27.10
2022-08-02T16:14:06.812Z,27.06
2022-08-02T16:16:36.286Z,27.03
2022-08-02T16:19:46.973Z,26.96
2022-08-02T16:21:54.091Z,26.95
2022-08-02T16:24:21.742Z,26.56
2022-08-02T16:26:49.538Z,26.62
2022-08-02T16:29:18.857Z,26.66
2022-08-02T16:31:48.141Z,26.71
2022-08-02T16:34:16.832Z,26.82
2022-08-02T16:36:46.174Z,26.85
2022-08-02T16:39:13.420Z,26.80
2022-08-02T16:41:51.830Z,26.74
2022-08-02T16:44:27.577Z,26.73
2022-08-02T16:47:01.451Z,26.60
2022-08-02T16:50:09.775Z,26.68
2022-08-02T16:52:19.646Z,26.49
2022-08-02T16:54:49.864Z,26.37
2022-08-02T16:57:19.971Z,26.40
2022-08-02T16:59:57.286Z,26.43
2022-08-02T17:02:28.109Z,26.30
2022-08-02T17:04:56.745Z,26.29
2022-08-02T17:08:07.876Z,26.41
2022-08-02T17:10:11.966Z,26.47
2022-08-02T17:12:39.852Z,26.43
2022-08-02T17:16:07.605Z,26.36
2022-08-02T17:17:57.023Z,26.21
2022-08-02T17:20:24.725Z,26.23
2022-08-02T17:22:52.702Z,26.23
2022-08-02T17:25:20.703Z,26.18
2022-08-02T17:27:55.466Z,26.07
2022-08-02T17:30:26.528Z,25.98
2022-08-02T17:32:57.573Z,25.88
2022-08-02T17:35:27.312Z,25.75
2022-08-02T17:38:17.690Z,25.74
2022-08-02T17:40:45.161Z,25.61
2022-08-02T17:43:14.564Z,25.51
2022-08-02T17:46:00.244Z,25.39
2022-08-02T17:48:50.014Z,25.34
2022-08-02T17:52:14.949Z,25.32
2022-08-02T17:54:04.255Z,25.27
2022-08-02T17:56:31.225Z,25.23
2022-08-02T17:59:20.732Z,25.16
2022-08-02T18:01:52.957Z,25.02
2022-08-02T18:04:27.402Z,24.84
2022-08-02T18:07:03.943Z,24.74
2022-08-02T18:09:32.538Z,24.64
2022-08-02T18:12:01.373Z,24.54
2022-08-02T18:14:28.067Z,24.43
2022-08-02T18:16:54.790Z,24.30
2022-08-02T18:19:21.552Z,24.11
2022-08-02T18:21:48.382Z,24.01
2022-08-02T18:24:16.218Z,23.87
2022-08-02T18:26:43.608Z,23.77
2022-08-02T18:29:12.197Z,23.74
2022-08-02T18:31:42.845Z,23.71
2022-08-02T18:34:23.937Z,23.68
2022-08-02T18:36:51.136Z,23.61
2022-08-02T18:39:18.002Z,23.52
2022-08-02T18:41:45.047Z,23.44
2022-08-02T18:44:16.693Z,23.33
2022-08-02T18:46:46.191Z,23.17
2022-08-02T18:49:16.325Z,23.11
2022-08-02T18:51:44.661Z,23.01
2022-08-02T18:54:11.862Z,22.80
2022-08-02T18:56:39.070Z,22.52
2022-08-02T18:59:07.662Z,22.42
2022-08-02T19:01:44.892Z,22.21
2022-08-02T19:04:16.136Z,22.01
2022-08-02T19:06:55.110Z,21.88
2022-08-02T19:09:21.875Z,21.84
2022-08-02T19:11:50.125Z,21.78
2022-08-02T19:14:27.239Z,21.81
2022-08-02T19:17:00.340Z,21.87
2022-08-02T19:19:44.112Z,21.82
2022-08-02T19:22:27.013Z,21.83
2022-08-02T19:25:00.077Z,21.85
2022-08-02T19:27:32.758Z,21.87
2022-08-02T19:30:07.760Z,21.80
2022-08-02T19:32:40.153Z,21.74
2022-08-02T19:35:30.784Z,21.71
2022-08-02T19:38:09.906Z,21.66
2022-08-02T19:40:41.571Z,21.61
2022-08-02T19:44:20.859Z,21.58
2022-08-02T19:45:57.592Z,21.55
2022-08-02T19:48:25.581Z,21.52
2022-08-02T19:50:59.504Z,21.48
2022-08-02T19:53:47.653Z,21.39
2022-08-02T19:56:20.340Z,21.33
2022-08-02T19:58:54.688Z,21.24
2022-08-02T20:04:13.006Z,21.17
2022-08-02T20:06:45.460Z,21.11
2022-08-02T20:09:21.146Z,21.08
2022-08-02T20:11:54.319Z,21.02
2022-08-02T20:14:27.482Z,20.95
2022-08-02T20:16:57.152Z,20.88
2022-08-02T20:19:24.662Z,20.84
2022-08-02T20:21:58.908Z,20.83
2022-08-02T20:24:27.579Z,20.84
2022-08-02T20:26:59.243Z,20.75
2022-08-02T20:29:44.879Z,20.72
2022-08-02T20:32:22.382Z,20.73
2022-08-02T20:34:49.927Z,20.68
2022-08-02T20:37:59.087Z,20.66
2022-08-02T20:40:06.690Z,20.64
2022-08-02T20:42:34.523Z,20.62
2022-08-02T20:45:01.914Z,20.58
2022-08-02T20:47:39.121Z,20.54
2022-08-02T20:50:30.352Z,20.52
2022-08-02T20:53:00.911Z,20.49
2022-08-02T20:55:30.776Z,20.47
2022-08-02T20:58:02.859Z,20.45
2022-08-02T21:00:32.078Z,20.38
2022-08-02T21:03:01.077Z,20.33
2022-08-02T21:05:54.674Z,20.16
2022-08-02T21:08:21.259Z,19.81
2022-08-02T21:13:47.227Z,19.98
2022-08-02T21:16:25.037Z,20.02
2022-08-02T21:18:55.822Z,20.01
2022-08-02T21:21:28.164Z,20.00
2022-08-02T21:23:56.960Z,19.98
2022-08-02T21:26:28.554Z,19.96
2022-08-02T21:29:03.959Z,19.94
2022-08-02T21:31:35.665Z,19.89
2022-08-02T21:34:03.795Z,19.84
2022-08-02T21:36:49.004Z,19.78
2022-08-02T21:39:18.441Z,19.73
2022-08-02T21:41:46.312Z,19.69
2022-08-02T21:44:17.253Z,19.64
2022-08-02T21:46:49.979Z,19.62
2022-08-02T21:49:20.045Z,19.59
2022-08-02T21:51:49.317Z,19.52
2022-08-02T21:54:20.146Z,19.44
2022-08-02T21:56:52.236Z,19.39
2022-08-02T21:59:26.013Z,19.33
2022-08-02T22:01:57.552Z,19.31
2022-08-02T22:04:28.588Z,19.32
2022-08-02T22:06:57.027Z,19.29
2022-08-02T22:09:43.841Z,19.20
2022-08-02T22:12:19.119Z,19.18
2022-08-02T22:14:55.044Z,19.16
2022-08-02T22:17:50.680Z,19.13
2022-08-02T22:20:20.395Z,19.12
2022-08-02T22:22:52.091Z,19.10
2022-08-02T22:25:26.803Z,19.05
2022-08-02T22:28:38.957Z,19.06
2022-08-02T22:30:56.701Z,19.04
2022-08-02T22:34:00.420Z,18.98
2022-08-02T22:36:43.161Z,18.89
2022-08-02T22:42:06.926Z,18.80
2022-08-02T22:44:44.192Z,18.71
2022-08-02T22:47:13.814Z,18.64
2022-08-02T22:49:53.200Z,18.60
2022-08-02T22:52:23.788Z,18.63
2022-08-02T22:54:51.315Z,18.64
2022-08-02T22:57:30.813Z,18.57
2022-08-02T22:59:07.447Z,21.19
2022-08-02T22:59:09.601Z,18.86
2022-08-02T22:59:11.980Z,19.81
2022-08-02T23:00:00.234Z,18.51
2022-08-02T23:02:28.202Z,18.47
2022-08-02T23:04:57.032Z,18.47
2022-08-02T23:07:23.822Z,18.42
2022-08-02T23:09:50.652Z,18.41
2022-08-02T23:12:20.148Z,18.45
2022-08-02T23:14:49.099Z,18.40
2022-08-02T23:17:38.927Z,18.34
2022-08-02T23:20:09.635Z,18.26
2022-08-02T23:22:37.488Z,18.17
2022-08-02T23:25:06.760Z,18.25
2022-08-02T23:27:34.686Z,18.21
2022-08-02T23:30:02.859Z,18.17
2022-08-02T23:32:30.376Z,18.19
2022-08-02T23:34:58.161Z,18.15
2022-08-02T23:37:25.498Z,18.10
2022-08-02T23:39:52.468Z,18.08
2022-08-02T23:42:20.064Z,18.00
2022-08-02T23:44:46.948Z,18.01
2022-08-02T23:47:13.778Z,18.00
2022-08-02T23:49:40.778Z,17.99
2022-08-02T23:52:08.092Z,17.96
2022-08-02T23:54:35.336Z,17.96
2022-08-02T23:57:20.041Z,17.96
2022-08-02T23:59:50.598Z,17.89
